sensor_id;sensor_type;location;lat;lon;timestamp;pressure;altitude;pressure_sealevel;temperature
13570;BMP180;6856;51.460;7.158;2024-01-30T00:01:24;101541.00;;;13.60
13570;BMP180;6856;51.460;7.158;2024-01-30T00:03:58;101547.00;;;13.60
13570;BMP180;6856;51.460;7.158;2024-01-30T00:06:33;101548.00;;;13.50
13570;BMP180;6856;51.460;7.158;2024-01-30T00:09:07;101546.00;;;13.50
13570;BMP180;6856;51.460;7.158;2024-01-30T00:11:42;101534.00;;;13.50
13570;BMP180;6856;51.460;7.158;2024-01-30T00:14:16;101540.00;;;13.50
13570;BMP180;6856;51.460;7.158;2024-01-30T00:16:51;101542.00;;;13.50
13570;BMP180;6856;51.460;7.158;2024-01-30T00:19:24;101526.00;;;13.50
13570;BMP180;6856;51.460;7.158;2024-01-30T00:22:00;101538.00;;;13.40
13570;BMP180;6856;51.460;7.158;2024-01-30T00:24:34;101536.00;;;13.40
13570;BMP180;6856;51.460;7.158;2024-01-30T00:27:08;101538.00;;;13.40
13570;BMP180;6856;51.460;7.158;2024-01-30T00:29:42;101530.00;;;13.40
13570;BMP180;6856;51.460;7.158;2024-01-30T00:32:16;101528.00;;;13.30
13570;BMP180;6856;51.460;7.158;2024-01-30T00:34:51;101533.00;;;13.30
13570;BMP180;6856;51.460;7.158;2024-01-30T00:37:26;101533.00;;;13.30
13570;BMP180;6856;51.460;7.158;2024-01-30T00:40:00;101525.00;;;13.30
13570;BMP180;6856;51.460;7.158;2024-01-30T00:42:34;101522.00;;;13.30
13570;BMP180;6856;51.460;7.158;2024-01-30T00:45:13;101518.00;;;13.30
13570;BMP180;6856;51.460;7.158;2024-01-30T00:47:46;101520.00;;;13.20
13570;BMP180;6856;51.460;7.158;2024-01-30T00:50:20;101519.00;;;13.30
13570;BMP180;6856;51.460;7.158;2024-01-30T00:52:55;101519.00;;;13.30
13570;BMP180;6856;51.460;7.158;2024-01-30T00:55:29;101522.00;;;13.20
13570;BMP180;6856;51.460;7.158;2024-01-30T00:58:03;101522.00;;;13.20
13570;BMP180;6856;51.460;7.158;2024-01-30T01:00:37;101517.00;;;13.20
13570;BMP180;6856;51.460;7.158;2024-01-30T01:03:11;101517.00;;;13.20
13570;BMP180;6856;51.460;7.158;2024-01-30T01:05:46;101519.00;;;13.20
13570;BMP180;6856;51.460;7.158;2024-01-30T01:08:21;101515.00;;;13.20
13570;BMP180;6856;51.460;7.158;2024-01-30T01:10:55;101511.00;;;13.20
13570;BMP180;6856;51.460;7.158;2024-01-30T01:13:29;101511.00;;;13.20
13570;BMP180;6856;51.460;7.158;2024-01-30T01:16:03;101523.00;;;13.20
13570;BMP180;6856;51.460;7.158;2024-01-30T01:18:37;101515.00;;;13.10
13570;BMP180;6856;51.460;7.158;2024-01-30T01:21:10;101522.00;;;13.10
13570;BMP180;6856;51.460;7.158;2024-01-30T01:23:46;101517.00;;;13.10
13570;BMP180;6856;51.460;7.158;2024-01-30T01:26:20;101521.00;;;13.10
13570;BMP180;6856;51.460;7.158;2024-01-30T01:28:58;101519.00;;;13.10
13570;BMP180;6856;51.460;7.158;2024-01-30T01:31:31;101511.00;;;13.10
13570;BMP180;6856;51.460;7.158;2024-01-30T01:34:05;101524.00;;;13.10
13570;BMP180;6856;51.460;7.158;2024-01-30T01:36:39;101524.00;;;13.10
13570;BMP180;6856;51.460;7.158;2024-01-30T01:39:14;101520.00;;;13.00
13570;BMP180;6856;51.460;7.158;2024-01-30T01:41:49;101520.00;;;13.00
13570;BMP180;6856;51.460;7.158;2024-01-30T01:44:23;101521.00;;;13.00
13570;BMP180;6856;51.460;7.158;2024-01-30T01:46:58;101515.00;;;13.00
13570;BMP180;6856;51.460;7.158;2024-01-30T01:49:32;101514.00;;;13.00
13570;BMP180;6856;51.460;7.158;2024-01-30T01:52:06;101516.00;;;13.00
13570;BMP180;6856;51.460;7.158;2024-01-30T01:54:42;101508.00;;;13.00
13570;BMP180;6856;51.460;7.158;2024-01-30T01:57:16;101508.00;;;13.00
13570;BMP180;6856;51.460;7.158;2024-01-30T01:59:51;101496.00;;;13.00
13570;BMP180;6856;51.460;7.158;2024-01-30T02:02:30;101496.00;;;13.00
13570;BMP180;6856;51.460;7.158;2024-01-30T02:05:06;101494.00;;;12.90
13570;BMP180;6856;51.460;7.158;2024-01-30T02:07:40;101494.00;;;12.90
13570;BMP180;6856;51.460;7.158;2024-01-30T02:10:16;101483.00;;;12.90
13570;BMP180;6856;51.460;7.158;2024-01-30T02:12:50;101492.00;;;12.90
13570;BMP180;6856;51.460;7.158;2024-01-30T02:15:24;101496.00;;;12.90
13570;BMP180;6856;51.460;7.158;2024-01-30T02:17:59;101494.00;;;12.80
13570;BMP180;6856;51.460;7.158;2024-01-30T02:20:35;101497.00;;;12.80
13570;BMP180;6856;51.460;7.158;2024-01-30T02:23:12;101488.00;;;12.80
13570;BMP180;6856;51.460;7.158;2024-01-30T02:25:46;101485.00;;;12.80
13570;BMP180;6856;51.460;7.158;2024-01-30T02:28:20;101489.00;;;12.80
13570;BMP180;6856;51.460;7.158;2024-01-30T02:30:54;101484.00;;;12.80
13570;BMP180;6856;51.460;7.158;2024-01-30T02:33:28;101483.00;;;12.80
13570;BMP180;6856;51.460;7.158;2024-01-30T02:36:05;101495.00;;;12.80
13570;BMP180;6856;51.460;7.158;2024-01-30T02:38:41;101435.00;;;12.70
13570;BMP180;6856;51.460;7.158;2024-01-30T02:41:14;101475.00;;;12.70
13570;BMP180;6856;51.460;7.158;2024-01-30T02:43:48;101480.00;;;12.70
13570;BMP180;6856;51.460;7.158;2024-01-30T02:46:22;101475.00;;;12.70
13570;BMP180;6856;51.460;7.158;2024-01-30T02:48:57;101466.00;;;12.60
13570;BMP180;6856;51.460;7.158;2024-01-30T02:51:31;101469.00;;;12.60
13570;BMP180;6856;51.460;7.158;2024-01-30T02:54:06;101465.00;;;12.60
13570;BMP180;6856;51.460;7.158;2024-01-30T02:56:40;101468.00;;;12.60
13570;BMP180;6856;51.460;7.158;2024-01-30T02:59:16;101461.00;;;12.60
13570;BMP180;6856;51.460;7.158;2024-01-30T03:01:50;101460.00;;;12.60
13570;BMP180;6856;51.460;7.158;2024-01-30T03:04:25;101458.00;;;12.60
13570;BMP180;6856;51.460;7.158;2024-01-30T03:06:59;101451.00;;;12.60
13570;BMP180;6856;51.460;7.158;2024-01-30T03:09:34;101452.00;;;12.60
13570;BMP180;6856;51.460;7.158;2024-01-30T03:12:08;101423.00;;;12.60
13570;BMP180;6856;51.460;7.158;2024-01-30T03:14:42;101440.00;;;12.60
13570;BMP180;6856;51.460;7.158;2024-01-30T03:17:16;101418.00;;;12.50
13570;BMP180;6856;51.460;7.158;2024-01-30T03:19:49;101435.00;;;12.50
13570;BMP180;6856;51.460;7.158;2024-01-30T03:22:23;101439.00;;;12.50
13570;BMP180;6856;51.460;7.158;2024-01-30T03:25:01;101438.00;;;12.50
13570;BMP180;6856;51.460;7.158;2024-01-30T03:27:34;101433.00;;;12.50
13570;BMP180;6856;51.460;7.158;2024-01-30T03:30:09;101434.00;;;12.50
13570;BMP180;6856;51.460;7.158;2024-01-30T03:32:43;101430.00;;;12.50
13570;BMP180;6856;51.460;7.158;2024-01-30T03:35:19;101425.00;;;12.50
13570;BMP180;6856;51.460;7.158;2024-01-30T03:37:53;101394.00;;;12.50
13570;BMP180;6856;51.460;7.158;2024-01-30T03:40:30;101434.00;;;12.50
13570;BMP180;6856;51.460;7.158;2024-01-30T03:43:04;101428.00;;;12.50
13570;BMP180;6856;51.460;7.158;2024-01-30T03:45:39;101426.00;;;12.50
13570;BMP180;6856;51.460;7.158;2024-01-30T03:48:12;101430.00;;;12.50
13570;BMP180;6856;51.460;7.158;2024-01-30T03:50:48;101427.00;;;12.50
13570;BMP180;6856;51.460;7.158;2024-01-30T03:53:22;101430.00;;;12.50
13570;BMP180;6856;51.460;7.158;2024-01-30T03:55:57;101430.00;;;12.50
13570;BMP180;6856;51.460;7.158;2024-01-30T03:58:31;101425.00;;;12.50
13570;BMP180;6856;51.460;7.158;2024-01-30T04:01:04;101425.00;;;12.50
13570;BMP180;6856;51.460;7.158;2024-01-30T04:03:38;101433.00;;;12.50
13570;BMP180;6856;51.460;7.158;2024-01-30T04:06:12;101426.00;;;12.50
13570;BMP180;6856;51.460;7.158;2024-01-30T04:08:46;101419.00;;;12.50
13570;BMP180;6856;51.460;7.158;2024-01-30T04:11:21;101420.00;;;12.50
13570;BMP180;6856;51.460;7.158;2024-01-30T04:13:55;101418.00;;;12.50
13570;BMP180;6856;51.460;7.158;2024-01-30T04:16:28;101418.00;;;12.50
13570;BMP180;6856;51.460;7.158;2024-01-30T04:19:03;101406.00;;;12.50
13570;BMP180;6856;51.460;7.158;2024-01-30T04:21:37;101407.00;;;12.50
13570;BMP180;6856;51.460;7.158;2024-01-30T04:24:11;101408.00;;;12.50
13570;BMP180;6856;51.460;7.158;2024-01-30T04:26:46;101400.00;;;12.50
13570;BMP180;6856;51.460;7.158;2024-01-30T04:29:20;101405.00;;;12.30
13570;BMP180;6856;51.460;7.158;2024-01-30T04:31:54;101397.00;;;12.50
13570;BMP180;6856;51.460;7.158;2024-01-30T04:34:30;101391.00;;;12.50
13570;BMP180;6856;51.460;7.158;2024-01-30T04:37:04;101390.00;;;12.40
13570;BMP180;6856;51.460;7.158;2024-01-30T04:39:39;101390.00;;;12.50
13570;BMP180;6856;51.460;7.158;2024-01-30T04:42:15;101392.00;;;12.50
13570;BMP180;6856;51.460;7.158;2024-01-30T04:44:49;101398.00;;;12.50
13570;BMP180;6856;51.460;7.158;2024-01-30T04:47:25;101388.00;;;12.50
13570;BMP180;6856;51.460;7.158;2024-01-30T04:49:59;101391.00;;;12.50
13570;BMP180;6856;51.460;7.158;2024-01-30T04:52:33;101399.00;;;12.50
13570;BMP180;6856;51.460;7.158;2024-01-30T04:55:07;101391.00;;;12.50
13570;BMP180;6856;51.460;7.158;2024-01-30T04:57:43;101392.00;;;12.50
13570;BMP180;6856;51.460;7.158;2024-01-30T05:00:18;101386.00;;;12.50
13570;BMP180;6856;51.460;7.158;2024-01-30T05:02:52;101394.00;;;12.50
13570;BMP180;6856;51.460;7.158;2024-01-30T05:05:26;101390.00;;;12.50
13570;BMP180;6856;51.460;7.158;2024-01-30T05:08:00;101385.00;;;12.60
13570;BMP180;6856;51.460;7.158;2024-01-30T05:10:35;101394.00;;;12.60
13570;BMP180;6856;51.460;7.158;2024-01-30T05:13:13;101397.00;;;12.60
13570;BMP180;6856;51.460;7.158;2024-01-30T05:15:47;101399.00;;;12.60
13570;BMP180;6856;51.460;7.158;2024-01-30T05:18:21;101396.00;;;12.60
13570;BMP180;6856;51.460;7.158;2024-01-30T05:20:54;101393.00;;;12.60
13570;BMP180;6856;51.460;7.158;2024-01-30T05:23:29;101400.00;;;12.60
13570;BMP180;6856;51.460;7.158;2024-01-30T05:26:03;101404.00;;;12.70
13570;BMP180;6856;51.460;7.158;2024-01-30T05:28:38;101394.00;;;12.70
13570;BMP180;6856;51.460;7.158;2024-01-30T05:31:12;101392.00;;;12.70
13570;BMP180;6856;51.460;7.158;2024-01-30T05:33:46;101391.00;;;12.70
13570;BMP180;6856;51.460;7.158;2024-01-30T05:36:20;101393.00;;;12.70
13570;BMP180;6856;51.460;7.158;2024-01-30T05:38:54;101384.00;;;12.70
13570;BMP180;6856;51.460;7.158;2024-01-30T05:41:28;101397.00;;;12.70
13570;BMP180;6856;51.460;7.158;2024-01-30T05:44:03;101390.00;;;12.70
13570;BMP180;6856;51.460;7.158;2024-01-30T05:46:37;101379.00;;;12.70
13570;BMP180;6856;51.460;7.158;2024-01-30T05:49:13;101386.00;;;12.70
13570;BMP180;6856;51.460;7.158;2024-01-30T05:51:47;101380.00;;;12.70
13570;BMP180;6856;51.460;7.158;2024-01-30T05:54:22;101384.00;;;12.70
13570;BMP180;6856;51.460;7.158;2024-01-30T05:56:56;101393.00;;;12.70
13570;BMP180;6856;51.460;7.158;2024-01-30T05:59:31;101390.00;;;12.70
13570;BMP180;6856;51.460;7.158;2024-01-30T06:02:05;101389.00;;;12.70
13570;BMP180;6856;51.460;7.158;2024-01-30T06:04:39;101383.00;;;12.70
13570;BMP180;6856;51.460;7.158;2024-01-30T06:07:13;101385.00;;;12.70
13570;BMP180;6856;51.460;7.158;2024-01-30T06:09:48;101385.00;;;12.70
13570;BMP180;6856;51.460;7.158;2024-01-30T06:12:22;101378.00;;;12.70
13570;BMP180;6856;51.460;7.158;2024-01-30T06:14:57;101377.00;;;12.70
13570;BMP180;6856;51.460;7.158;2024-01-30T06:17:32;101385.00;;;12.70
13570;BMP180;6856;51.460;7.158;2024-01-30T06:20:07;101383.00;;;12.70
13570;BMP180;6856;51.460;7.158;2024-01-30T06:22:41;101391.00;;;12.70
13570;BMP180;6856;51.460;7.158;2024-01-30T06:25:16;101384.00;;;12.70
13570;BMP180;6856;51.460;7.158;2024-01-30T06:27:53;101378.00;;;12.80
13570;BMP180;6856;51.460;7.158;2024-01-30T06:30:28;101383.00;;;12.80
13570;BMP180;6856;51.460;7.158;2024-01-30T06:33:02;101388.00;;;12.80
13570;BMP180;6856;51.460;7.158;2024-01-30T06:35:36;101381.00;;;12.80
13570;BMP180;6856;51.460;7.158;2024-01-30T06:38:16;101382.00;;;12.80
13570;BMP180;6856;51.460;7.158;2024-01-30T06:40:50;101382.00;;;12.80
13570;BMP180;6856;51.460;7.158;2024-01-30T06:43:25;101382.00;;;12.80
13570;BMP180;6856;51.460;7.158;2024-01-30T06:46:00;101380.00;;;12.80
13570;BMP180;6856;51.460;7.158;2024-01-30T06:48:34;101379.00;;;12.80
13570;BMP180;6856;51.460;7.158;2024-01-30T06:51:07;101387.00;;;12.90
13570;BMP180;6856;51.460;7.158;2024-01-30T06:53:41;101374.00;;;12.90
13570;BMP180;6856;51.460;7.158;2024-01-30T06:56:16;101342.00;;;12.90
13570;BMP180;6856;51.460;7.158;2024-01-30T06:58:53;101370.00;;;12.90
13570;BMP180;6856;51.460;7.158;2024-01-30T07:01:30;101368.00;;;12.90
13570;BMP180;6856;51.460;7.158;2024-01-30T07:04:04;101367.00;;;12.90
13570;BMP180;6856;51.460;7.158;2024-01-30T07:06:38;101375.00;;;12.90
13570;BMP180;6856;51.460;7.158;2024-01-30T07:09:12;101380.00;;;12.90
13570;BMP180;6856;51.460;7.158;2024-01-30T07:11:47;101386.00;;;12.90
13570;BMP180;6856;51.460;7.158;2024-01-30T07:14:21;101376.00;;;12.90
13570;BMP180;6856;51.460;7.158;2024-01-30T07:16:56;101393.00;;;12.90
13570;BMP180;6856;51.460;7.158;2024-01-30T07:19:30;101390.00;;;12.90
13570;BMP180;6856;51.460;7.158;2024-01-30T07:22:04;101388.00;;;12.90
13570;BMP180;6856;51.460;7.158;2024-01-30T07:24:43;101403.00;;;12.90
13570;BMP180;6856;51.460;7.158;2024-01-30T07:27:20;101405.00;;;12.90
13570;BMP180;6856;51.460;7.158;2024-01-30T07:29:54;101410.00;;;12.90
13570;BMP180;6856;51.460;7.158;2024-01-30T07:32:30;101411.00;;;12.90
13570;BMP180;6856;51.460;7.158;2024-01-30T07:35:04;101415.00;;;13.00
13570;BMP180;6856;51.460;7.158;2024-01-30T07:37:40;101405.00;;;13.00
13570;BMP180;6856;51.460;7.158;2024-01-30T07:40:15;101404.00;;;13.00
13570;BMP180;6856;51.460;7.158;2024-01-30T07:42:48;101388.00;;;13.00
13570;BMP180;6856;51.460;7.158;2024-01-30T07:45:25;101398.00;;;13.00
13570;BMP180;6856;51.460;7.158;2024-01-30T07:48:01;101406.00;;;13.00
13570;BMP180;6856;51.460;7.158;2024-01-30T07:50:36;101404.00;;;13.10
13570;BMP180;6856;51.460;7.158;2024-01-30T07:53:10;101414.00;;;13.10
13570;BMP180;6856;51.460;7.158;2024-01-30T07:55:44;101403.00;;;13.10
13570;BMP180;6856;51.460;7.158;2024-01-30T07:58:19;101405.00;;;13.10
13570;BMP180;6856;51.460;7.158;2024-01-30T08:00:52;101412.00;;;13.10
13570;BMP180;6856;51.460;7.158;2024-01-30T08:03:28;101411.00;;;13.10
13570;BMP180;6856;51.460;7.158;2024-01-30T08:06:03;101416.00;;;13.20
13570;BMP180;6856;51.460;7.158;2024-01-30T08:08:38;101423.00;;;13.20
13570;BMP180;6856;51.460;7.158;2024-01-30T08:11:13;101404.00;;;13.20
13570;BMP180;6856;51.460;7.158;2024-01-30T08:13:50;101427.00;;;13.30
13570;BMP180;6856;51.460;7.158;2024-01-30T08:16:24;101436.00;;;13.30
13570;BMP180;6856;51.460;7.158;2024-01-30T08:19:00;101443.00;;;13.30
13570;BMP180;6856;51.460;7.158;2024-01-30T08:21:36;101439.00;;;13.40
13570;BMP180;6856;51.460;7.158;2024-01-30T08:24:12;101430.00;;;13.40
13570;BMP180;6856;51.460;7.158;2024-01-30T08:26:49;101433.00;;;13.40
13570;BMP180;6856;51.460;7.158;2024-01-30T08:29:22;101428.00;;;13.50
13570;BMP180;6856;51.460;7.158;2024-01-30T08:31:57;101426.00;;;13.50
13570;BMP180;6856;51.460;7.158;2024-01-30T08:34:33;101432.00;;;13.50
13570;BMP180;6856;51.460;7.158;2024-01-30T08:37:07;101439.00;;;13.60
13570;BMP180;6856;51.460;7.158;2024-01-30T08:39:41;101426.00;;;13.60
13570;BMP180;6856;51.460;7.158;2024-01-30T08:42:15;101441.00;;;13.60
13570;BMP180;6856;51.460;7.158;2024-01-30T08:44:51;101442.00;;;13.70
13570;BMP180;6856;51.460;7.158;2024-01-30T08:47:25;101438.00;;;13.70
13570;BMP180;6856;51.460;7.158;2024-01-30T08:50:00;101438.00;;;13.70
13570;BMP180;6856;51.460;7.158;2024-01-30T08:52:34;101437.00;;;13.70
13570;BMP180;6856;51.460;7.158;2024-01-30T08:55:10;101452.00;;;13.80
13570;BMP180;6856;51.460;7.158;2024-01-30T08:57:43;101443.00;;;13.80
13570;BMP180;6856;51.460;7.158;2024-01-30T09:00:18;101451.00;;;13.80
13570;BMP180;6856;51.460;7.158;2024-01-30T09:02:53;101448.00;;;13.90
13570;BMP180;6856;51.460;7.158;2024-01-30T09:05:29;101458.00;;;13.90
13570;BMP180;6856;51.460;7.158;2024-01-30T09:08:05;101456.00;;;13.90
13570;BMP180;6856;51.460;7.158;2024-01-30T09:10:39;101463.00;;;13.90
13570;BMP180;6856;51.460;7.158;2024-01-30T09:13:13;101462.00;;;14.00
13570;BMP180;6856;51.460;7.158;2024-01-30T09:15:47;101467.00;;;14.00
13570;BMP180;6856;51.460;7.158;2024-01-30T09:18:21;101472.00;;;14.00
13570;BMP180;6856;51.460;7.158;2024-01-30T09:20:59;101474.00;;;14.00
13570;BMP180;6856;51.460;7.158;2024-01-30T09:23:34;101475.00;;;14.10
13570;BMP180;6856;51.460;7.158;2024-01-30T09:26:12;101478.00;;;14.10
13570;BMP180;6856;51.460;7.158;2024-01-30T09:28:46;101490.00;;;14.10
13570;BMP180;6856;51.460;7.158;2024-01-30T09:31:20;101502.00;;;14.20
13570;BMP180;6856;51.460;7.158;2024-01-30T09:33:55;101494.00;;;14.20
13570;BMP180;6856;51.460;7.158;2024-01-30T09:36:32;101498.00;;;14.20
13570;BMP180;6856;51.460;7.158;2024-01-30T09:39:06;101498.00;;;14.20
13570;BMP180;6856;51.460;7.158;2024-01-30T09:41:48;101481.00;;;14.10
13570;BMP180;6856;51.460;7.158;2024-01-30T09:44:24;101484.00;;;14.20
13570;BMP180;6856;51.460;7.158;2024-01-30T09:46:59;101489.00;;;14.30
13570;BMP180;6856;51.460;7.158;2024-01-30T09:49:38;101481.00;;;14.30
13570;BMP180;6856;51.460;7.158;2024-01-30T09:52:15;101486.00;;;14.30
13570;BMP180;6856;51.460;7.158;2024-01-30T09:54:53;101482.00;;;14.40
13570;BMP180;6856;51.460;7.158;2024-01-30T09:57:29;101474.00;;;14.30
13570;BMP180;6856;51.460;7.158;2024-01-30T10:00:04;101479.00;;;14.40
13570;BMP180;6856;51.460;7.158;2024-01-30T10:02:40;101478.00;;;14.40
13570;BMP180;6856;51.460;7.158;2024-01-30T10:05:19;101487.00;;;14.50
13570;BMP180;6856;51.460;7.158;2024-01-30T10:07:56;101482.00;;;14.50
13570;BMP180;6856;51.460;7.158;2024-01-30T10:10:30;101465.00;;;14.50
13570;BMP180;6856;51.460;7.158;2024-01-30T10:13:04;101491.00;;;14.60
13570;BMP180;6856;51.460;7.158;2024-01-30T10:15:40;101485.00;;;14.60
13570;BMP180;6856;51.460;7.158;2024-01-30T10:18:14;101456.00;;;14.70
13570;BMP180;6856;51.460;7.158;2024-01-30T10:20:48;101477.00;;;14.70
13570;BMP180;6856;51.460;7.158;2024-01-30T10:23:29;101485.00;;;14.80
13570;BMP180;6856;51.460;7.158;2024-01-30T10:26:07;101485.00;;;14.80
13570;BMP180;6856;51.460;7.158;2024-01-30T10:28:45;101474.00;;;14.90
13570;BMP180;6856;51.460;7.158;2024-01-30T10:31:19;101483.00;;;14.90
13570;BMP180;6856;51.460;7.158;2024-01-30T10:33:54;101480.00;;;14.90
13570;BMP180;6856;51.460;7.158;2024-01-30T10:36:50;101477.00;;;15.00
13570;BMP180;6856;51.460;7.158;2024-01-30T10:39:29;101489.00;;;15.00
13570;BMP180;6856;51.460;7.158;2024-01-30T10:42:05;101484.00;;;15.10
13570;BMP180;6856;51.460;7.158;2024-01-30T10:44:48;101494.00;;;15.10
13570;BMP180;6856;51.460;7.158;2024-01-30T10:47:28;101496.00;;;15.20
13570;BMP180;6856;51.460;7.158;2024-01-30T10:50:02;101494.00;;;15.30
13570;BMP180;6856;51.460;7.158;2024-01-30T10:52:37;101493.00;;;15.30
13570;BMP180;6856;51.460;7.158;2024-01-30T10:55:15;101495.00;;;15.30
13570;BMP180;6856;51.460;7.158;2024-01-30T10:57:50;101465.00;;;15.40
13570;BMP180;6856;51.460;7.158;2024-01-30T11:00:24;101492.00;;;15.40
13570;BMP180;6856;51.460;7.158;2024-01-30T11:02:59;101504.00;;;15.50
13570;BMP180;6856;51.460;7.158;2024-01-30T11:05:33;101508.00;;;15.50
13570;BMP180;6856;51.460;7.158;2024-01-30T11:08:12;101497.00;;;15.50
13570;BMP180;6856;51.460;7.158;2024-01-30T11:10:48;101494.00;;;15.60
13570;BMP180;6856;51.460;7.158;2024-01-30T11:13:26;101491.00;;;15.60
13570;BMP180;6856;51.460;7.158;2024-01-30T11:16:01;101495.00;;;15.60
13570;BMP180;6856;51.460;7.158;2024-01-30T11:18:36;101501.00;;;15.60
13570;BMP180;6856;51.460;7.158;2024-01-30T11:21:14;101477.00;;;15.70
13570;BMP180;6856;51.460;7.158;2024-01-30T11:23:49;101498.00;;;15.70
13570;BMP180;6856;51.460;7.158;2024-01-30T11:26:32;101502.00;;;15.70
13570;BMP180;6856;51.460;7.158;2024-01-30T11:29:07;101495.00;;;15.80
13570;BMP180;6856;51.460;7.158;2024-01-30T11:31:52;101492.00;;;15.80
13570;BMP180;6856;51.460;7.158;2024-01-30T11:34:26;101485.00;;;15.90
13570;BMP180;6856;51.460;7.158;2024-01-30T11:37:09;101503.00;;;15.90
13570;BMP180;6856;51.460;7.158;2024-01-30T11:39:46;101506.00;;;15.90
13570;BMP180;6856;51.460;7.158;2024-01-30T11:42:24;101511.00;;;15.90
13570;BMP180;6856;51.460;7.158;2024-01-30T11:45:00;101511.00;;;15.90
13570;BMP180;6856;51.460;7.158;2024-01-30T11:47:37;101502.00;;;15.90
13570;BMP180;6856;51.460;7.158;2024-01-30T11:50:16;101515.00;;;15.90
13570;BMP180;6856;51.460;7.158;2024-01-30T11:52:50;101506.00;;;15.90
13570;BMP180;6856;51.460;7.158;2024-01-30T11:55:26;101515.00;;;15.90
13570;BMP180;6856;51.460;7.158;2024-01-30T11:58:06;101521.00;;;15.90
13570;BMP180;6856;51.460;7.158;2024-01-30T12:00:41;101523.00;;;15.90
13570;BMP180;6856;51.460;7.158;2024-01-30T12:03:15;101524.00;;;15.90
13570;BMP180;6856;51.460;7.158;2024-01-30T12:05:56;101512.00;;;15.90
13570;BMP180;6856;51.460;7.158;2024-01-30T12:08:31;101528.00;;;15.90
13570;BMP180;6856;51.460;7.158;2024-01-30T12:11:07;101525.00;;;15.90
13570;BMP180;6856;51.460;7.158;2024-01-30T12:13:42;101523.00;;;15.90
13570;BMP180;6856;51.460;7.158;2024-01-30T12:16:19;101519.00;;;15.90
13570;BMP180;6856;51.460;7.158;2024-01-30T12:19:00;101521.00;;;15.90
13570;BMP180;6856;51.460;7.158;2024-01-30T12:21:35;101518.00;;;15.90
13570;BMP180;6856;51.460;7.158;2024-01-30T12:24:09;101506.00;;;15.90
13570;BMP180;6856;51.460;7.158;2024-01-30T12:26:44;101515.00;;;15.90
13570;BMP180;6856;51.460;7.158;2024-01-30T12:29:20;101517.00;;;15.90
13570;BMP180;6856;51.460;7.158;2024-01-30T12:31:54;101518.00;;;15.90
13570;BMP180;6856;51.460;7.158;2024-01-30T12:34:29;101517.00;;;15.90
13570;BMP180;6856;51.460;7.158;2024-01-30T12:37:09;101517.00;;;15.90
13570;BMP180;6856;51.460;7.158;2024-01-30T12:39:45;101519.00;;;15.90
13570;BMP180;6856;51.460;7.158;2024-01-30T12:42:20;101516.00;;;15.90
13570;BMP180;6856;51.460;7.158;2024-01-30T12:44:57;101515.00;;;15.90
13570;BMP180;6856;51.460;7.158;2024-01-30T12:47:32;101517.00;;;15.90
13570;BMP180;6856;51.460;7.158;2024-01-30T12:50:07;101510.00;;;15.90
13570;BMP180;6856;51.460;7.158;2024-01-30T12:52:43;101512.00;;;15.90
13570;BMP180;6856;51.460;7.158;2024-01-30T12:55:21;101520.00;;;15.90
13570;BMP180;6856;51.460;7.158;2024-01-30T12:57:54;101516.00;;;15.90
13570;BMP180;6856;51.460;7.158;2024-01-30T13:00:33;101522.00;;;15.90
13570;BMP180;6856;51.460;7.158;2024-01-30T13:03:09;101499.00;;;15.90
13570;BMP180;6856;51.460;7.158;2024-01-30T13:05:43;101514.00;;;15.90
13570;BMP180;6856;51.460;7.158;2024-01-30T13:08:17;101519.00;;;15.90
13570;BMP180;6856;51.460;7.158;2024-01-30T13:10:51;101517.00;;;15.90
13570;BMP180;6856;51.460;7.158;2024-01-30T13:13:25;101520.00;;;15.90
13570;BMP180;6856;51.460;7.158;2024-01-30T13:16:00;101526.00;;;15.90
13570;BMP180;6856;51.460;7.158;2024-01-30T13:18:34;101524.00;;;15.90
13570;BMP180;6856;51.460;7.158;2024-01-30T13:21:07;101508.00;;;15.80
13570;BMP180;6856;51.460;7.158;2024-01-30T13:23:41;101499.00;;;15.80
13570;BMP180;6856;51.460;7.158;2024-01-30T13:26:15;101528.00;;;15.80
13570;BMP180;6856;51.460;7.158;2024-01-30T13:28:49;101522.00;;;15.80
13570;BMP180;6856;51.460;7.158;2024-01-30T13:31:24;101518.00;;;15.80
13570;BMP180;6856;51.460;7.158;2024-01-30T13:34:01;101526.00;;;15.80
13570;BMP180;6856;51.460;7.158;2024-01-30T13:36:39;101533.00;;;15.80
13570;BMP180;6856;51.460;7.158;2024-01-30T13:39:14;101535.00;;;15.80
13570;BMP180;6856;51.460;7.158;2024-01-30T13:41:50;101531.00;;;15.80
13570;BMP180;6856;51.460;7.158;2024-01-30T13:44:24;101503.00;;;15.70
13570;BMP180;6856;51.460;7.158;2024-01-30T13:46:59;101523.00;;;15.70
13570;BMP180;6856;51.460;7.158;2024-01-30T13:49:33;101530.00;;;15.70
13570;BMP180;6856;51.460;7.158;2024-01-30T13:52:07;101532.00;;;15.70
13570;BMP180;6856;51.460;7.158;2024-01-30T13:54:41;101531.00;;;15.70
13570;BMP180;6856;51.460;7.158;2024-01-30T13:57:15;101529.00;;;15.70
13570;BMP180;6856;51.460;7.158;2024-01-30T13:59:49;101503.00;;;15.70
13570;BMP180;6856;51.460;7.158;2024-01-30T14:02:26;101532.00;;;15.70
13570;BMP180;6856;51.460;7.158;2024-01-30T14:05:01;101537.00;;;15.70
13570;BMP180;6856;51.460;7.158;2024-01-30T14:07:38;101536.00;;;15.70
13570;BMP180;6856;51.460;7.158;2024-01-30T14:10:18;101538.00;;;15.70
13570;BMP180;6856;51.460;7.158;2024-01-30T14:12:52;101538.00;;;15.70
13570;BMP180;6856;51.460;7.158;2024-01-30T14:15:26;101537.00;;;15.70
13570;BMP180;6856;51.460;7.158;2024-01-30T14:18:04;101528.00;;;15.70
13570;BMP180;6856;51.460;7.158;2024-01-30T14:20:40;101525.00;;;15.70
13570;BMP180;6856;51.460;7.158;2024-01-30T14:23:19;101527.00;;;15.70
13570;BMP180;6856;51.460;7.158;2024-01-30T14:25:55;101540.00;;;15.80
13570;BMP180;6856;51.460;7.158;2024-01-30T14:28:30;101515.00;;;15.80
13570;BMP180;6856;51.460;7.158;2024-01-30T14:31:05;101534.00;;;15.80
13570;BMP180;6856;51.460;7.158;2024-01-30T14:33:40;101542.00;;;15.80
13570;BMP180;6856;51.460;7.158;2024-01-30T14:36:14;101531.00;;;15.80
13570;BMP180;6856;51.460;7.158;2024-01-30T14:38:48;101535.00;;;15.80
13570;BMP180;6856;51.460;7.158;2024-01-30T14:41:22;101523.00;;;15.80
13570;BMP180;6856;51.460;7.158;2024-01-30T14:43:56;101526.00;;;15.80
13570;BMP180;6856;51.460;7.158;2024-01-30T14:46:32;101539.00;;;15.80
13570;BMP180;6856;51.460;7.158;2024-01-30T14:49:08;101553.00;;;15.80
13570;BMP180;6856;51.460;7.158;2024-01-30T14:51:43;101539.00;;;15.80
13570;BMP180;6856;51.460;7.158;2024-01-30T14:54:18;101551.00;;;15.80